sensor_id;sensor_type;location;lat;lon;timestamp;noise_LAeq;noise_LA_min;noise_LA_max;noise_LA01;noise_LA95
74496;Laerm;62979;55.720;37.606;2023-07-31T00:02:01;49.45;45.75;58.39;;
74496;Laerm;62979;55.720;37.606;2023-07-31T00:04:27;51.28;45.05;65.22;;
74496;Laerm;62979;55.720;37.606;2023-07-31T00:06:54;49.12;45.83;52.79;;
74496;Laerm;62979;55.720;37.606;2023-07-31T00:09:25;49.87;45.18;57.23;;
74496;Laerm;62979;55.720;37.606;2023-07-31T00:11:52;51.07;45.82;64.26;;
74496;Laerm;62979;55.720;37.606;2023-07-31T00:14:19;49.46;45.72;58.93;;
74496;Laerm;62979;55.720;37.606;2023-07-31T00:16:45;50.55;46.04;59.04;;
74496;Laerm;62979;55.720;37.606;2023-07-31T00:19:12;49.94;46.37;57.45;;
74496;Laerm;62979;55.720;37.606;2023-07-31T00:21:39;48.92;45.05;56.93;;
74496;Laerm;62979;55.720;37.606;2023-07-31T00:24:06;49.01;43.40;56.74;;
74496;Laerm;62979;55.720;37.606;2023-07-31T00:26:34;48.15;44.89;52.04;;
74496;Laerm;62979;55.720;37.606;2023-07-31T00:29:01;49.94;44.58;61.14;;
74496;Laerm;62979;55.720;37.606;2023-07-31T00:31:28;48.03;44.42;52.56;;
74496;Laerm;62979;55.720;37.606;2023-07-31T00:33:55;50.08;44.69;60.98;;
74496;Laerm;62979;55.720;37.606;2023-07-31T00:36:22;49.01;43.84;56.49;;
74496;Laerm;62979;55.720;37.606;2023-07-31T00:38:49;48.95;45.29;53.66;;
74496;Laerm;62979;55.720;37.606;2023-07-31T00:41:16;48.95;45.13;54.45;;
74496;Laerm;62979;55.720;37.606;2023-07-31T00:43:44;48.59;43.39;55.40;;
74496;Laerm;62979;55.720;37.606;2023-07-31T00:46:11;48.66;44.38;52.56;;
74496;Laerm;62979;55.720;37.606;2023-07-31T00:48:39;49.00;45.07;53.73;;
74496;Laerm;62979;55.720;37.606;2023-07-31T00:51:07;49.02;44.96;53.46;;
74496;Laerm;62979;55.720;37.606;2023-07-31T00:53:35;49.06;45.16;58.63;;
74496;Laerm;62979;55.720;37.606;2023-07-31T00:56:03;49.14;45.69;55.45;;
74496;Laerm;62979;55.720;37.606;2023-07-31T00:58:30;49.40;46.01;53.76;;
74496;Laerm;62979;55.720;37.606;2023-07-31T01:00:59;48.97;44.66;53.33;;
74496;Laerm;62979;55.720;37.606;2023-07-31T01:03:26;48.98;44.61;54.46;;
74496;Laerm;62979;55.720;37.606;2023-07-31T01:06:12;49.25;45.58;60.31;;
74496;Laerm;62979;55.720;37.606;2023-07-31T01:08:49;49.88;44.71;56.03;;
74496;Laerm;62979;55.720;37.606;2023-07-31T01:11:25;48.26;43.97;53.87;;
74496;Laerm;62979;55.720;37.606;2023-07-31T01:13:55;48.20;44.24;54.16;;
74496;Laerm;62979;55.720;37.606;2023-07-31T01:16:25;50.67;44.83;60.23;;
74496;Laerm;62979;55.720;37.606;2023-07-31T01:18:52;50.70;46.54;56.93;;
74496;Laerm;62979;55.720;37.606;2023-07-31T01:21:41;49.04;43.80;54.77;;
74496;Laerm;62979;55.720;37.606;2023-07-31T01:24:22;48.67;45.44;58.00;;
74496;Laerm;62979;55.720;37.606;2023-07-31T01:26:58;49.89;44.42;57.52;;
74496;Laerm;62979;55.720;37.606;2023-07-31T01:29:38;50.75;45.61;58.17;;
74496;Laerm;62979;55.720;37.606;2023-07-31T01:32:07;50.91;45.16;58.88;;
74496;Laerm;62979;55.720;37.606;2023-07-31T01:34:36;50.64;45.16;60.01;;
74496;Laerm;62979;55.720;37.606;2023-07-31T01:37:04;50.00;44.87;57.05;;
74496;Laerm;62979;55.720;37.606;2023-07-31T01:39:31;49.02;45.19;57.84;;
74496;Laerm;62979;55.720;37.606;2023-07-31T01:41:59;49.44;43.67;63.41;;
74496;Laerm;62979;55.720;37.606;2023-07-31T01:44:27;50.35;44.81;61.70;;
74496;Laerm;62979;55.720;37.606;2023-07-31T01:46:54;49.14;44.76;53.02;;
74496;Laerm;62979;55.720;37.606;2023-07-31T01:49:21;47.97;44.04;53.04;;
74496;Laerm;62979;55.720;37.606;2023-07-31T01:51:47;49.29;44.47;58.68;;
74496;Laerm;62979;55.720;37.606;2023-07-31T01:54:14;48.48;43.70;61.18;;
74496;Laerm;62979;55.720;37.606;2023-07-31T01:56:41;48.10;44.93;55.57;;
74496;Laerm;62979;55.720;37.606;2023-07-31T01:59:09;48.93;44.69;58.15;;
74496;Laerm;62979;55.720;37.606;2023-07-31T02:01:36;48.76;44.50;61.37;;
74496;Laerm;62979;55.720;37.606;2023-07-31T02:04:03;48.64;44.63;56.70;;
74496;Laerm;62979;55.720;37.606;2023-07-31T02:06:30;49.23;45.24;58.61;;
74496;Laerm;62979;55.720;37.606;2023-07-31T02:08:57;48.36;44.85;52.70;;
74496;Laerm;62979;55.720;37.606;2023-07-31T02:11:24;50.76;44.98;61.52;;
74496;Laerm;62979;55.720;37.606;2023-07-31T02:13:51;49.14;44.43;55.96;;
74496;Laerm;62979;55.720;37.606;2023-07-31T02:16:19;48.81;44.62;58.52;;
74496;Laerm;62979;55.720;37.606;2023-07-31T02:18:45;49.63;44.94;56.97;;
74496;Laerm;62979;55.720;37.606;2023-07-31T02:21:12;48.52;44.95;52.15;;
74496;Laerm;62979;55.720;37.606;2023-07-31T02:23:39;50.14;45.63;62.80;;
74496;Laerm;62979;55.720;37.606;2023-07-31T02:26:06;50.34;44.13;61.98;;
74496;Laerm;62979;55.720;37.606;2023-07-31T02:28:33;48.02;43.68;55.63;;
74496;Laerm;62979;55.720;37.606;2023-07-31T02:31:00;49.05;43.58;58.45;;
74496;Laerm;62979;55.720;37.606;2023-07-31T02:33:28;48.50;43.62;57.51;;
74496;Laerm;62979;55.720;37.606;2023-07-31T02:35:55;48.41;42.70;61.43;;
74496;Laerm;62979;55.720;37.606;2023-07-31T02:38:22;46.87;43.10;54.74;;
74496;Laerm;62979;55.720;37.606;2023-07-31T02:40:49;47.00;43.09;53.87;;
74496;Laerm;62979;55.720;37.606;2023-07-31T02:43:16;49.89;43.88;59.52;;
74496;Laerm;62979;55.720;37.606;2023-07-31T02:45:43;54.75;42.78;69.10;;
74496;Laerm;62979;55.720;37.606;2023-07-31T02:48:10;50.58;44.13;62.11;;
74496;Laerm;62979;55.720;37.606;2023-07-31T02:50:38;51.34;44.02;60.00;;
74496;Laerm;62979;55.720;37.606;2023-07-31T02:53:05;49.00;44.71;54.85;;
74496;Laerm;62979;55.720;37.606;2023-07-31T02:55:32;47.77;43.92;53.06;;
74496;Laerm;62979;55.720;37.606;2023-07-31T02:57:58;47.53;42.92;57.11;;
74496;Laerm;62979;55.720;37.606;2023-07-31T03:00:25;48.67;44.09;58.00;;
74496;Laerm;62979;55.720;37.606;2023-07-31T03:02:52;52.58;43.44;64.72;;
74496;Laerm;62979;55.720;37.606;2023-07-31T03:05:19;52.34;44.44;64.20;;
74496;Laerm;62979;55.720;37.606;2023-07-31T03:07:47;53.60;45.57;68.40;;
74496;Laerm;62979;55.720;37.606;2023-07-31T03:10:14;47.77;43.62;59.19;;
74496;Laerm;62979;55.720;37.606;2023-07-31T03:12:41;51.62;43.89;69.86;;
74496;Laerm;62979;55.720;37.606;2023-07-31T03:15:09;50.68;44.26;60.45;;
74496;Laerm;62979;55.720;37.606;2023-07-31T03:17:36;53.63;45.20;62.83;;
74496;Laerm;62979;55.720;37.606;2023-07-31T03:20:04;52.66;45.05;72.24;;
74496;Laerm;62979;55.720;37.606;2023-07-31T03:22:31;49.02;43.66;58.75;;
74496;Laerm;62979;55.720;37.606;2023-07-31T03:24:59;60.24;44.24;70.97;;
74496;Laerm;62979;55.720;37.606;2023-07-31T03:27:26;61.94;51.54;68.82;;
74496;Laerm;62979;55.720;37.606;2023-07-31T03:29:53;51.60;43.80;60.53;;
74496;Laerm;62979;55.720;37.606;2023-07-31T03:32:20;52.45;42.96;67.63;;
74496;Laerm;62979;55.720;37.606;2023-07-31T03:34:47;58.21;44.18;67.76;;
74496;Laerm;62979;55.720;37.606;2023-07-31T03:37:14;53.70;42.60;67.72;;
74496;Laerm;62979;55.720;37.606;2023-07-31T03:39:41;51.51;44.79;62.04;;
74496;Laerm;62979;55.720;37.606;2023-07-31T03:42:09;50.13;44.39;59.76;;
74496;Laerm;62979;55.720;37.606;2023-07-31T03:44:36;46.59;43.20;52.99;;
74496;Laerm;62979;55.720;37.606;2023-07-31T03:47:03;56.15;44.15;74.64;;
74496;Laerm;62979;55.720;37.606;2023-07-31T03:49:30;52.75;43.02;62.86;;
74496;Laerm;62979;55.720;37.606;2023-07-31T03:51:57;50.18;42.91;62.46;;
74496;Laerm;62979;55.720;37.606;2023-07-31T03:54:24;51.28;43.59;60.60;;
74496;Laerm;62979;55.720;37.606;2023-07-31T03:56:51;57.53;48.40;76.93;;
74496;Laerm;62979;55.720;37.606;2023-07-31T03:59:19;62.06;47.81;83.10;;
74496;Laerm;62979;55.720;37.606;2023-07-31T04:01:46;57.61;47.05;69.39;;
74496;Laerm;62979;55.720;37.606;2023-07-31T04:04:13;56.97;45.12;69.36;;
74496;Laerm;62979;55.720;37.606;2023-07-31T04:06:40;50.33;44.11;67.49;;
74496;Laerm;62979;55.720;37.606;2023-07-31T04:09:06;50.52;44.38;59.10;;
74496;Laerm;62979;55.720;37.606;2023-07-31T04:11:33;49.30;42.86;65.41;;
74496;Laerm;62979;55.720;37.606;2023-07-31T04:14:00;51.02;44.24;63.07;;
74496;Laerm;62979;55.720;37.606;2023-07-31T04:16:28;53.31;44.69;62.86;;
74496;Laerm;62979;55.720;37.606;2023-07-31T04:18:55;52.14;43.54;66.34;;
74496;Laerm;62979;55.720;37.606;2023-07-31T04:21:22;62.41;46.90;72.09;;
74496;Laerm;62979;55.720;37.606;2023-07-31T04:23:49;51.88;43.81;62.32;;
74496;Laerm;62979;55.720;37.606;2023-07-31T04:26:16;61.66;48.57;72.66;;
74496;Laerm;62979;55.720;37.606;2023-07-31T04:28:43;50.30;44.22;60.30;;
74496;Laerm;62979;55.720;37.606;2023-07-31T04:31:10;53.06;45.72;61.01;;
74496;Laerm;62979;55.720;37.606;2023-07-31T04:33:38;52.51;46.40;61.71;;
74496;Laerm;62979;55.720;37.606;2023-07-31T04:36:05;52.13;44.27;60.09;;
74496;Laerm;62979;55.720;37.606;2023-07-31T04:38:32;54.00;44.81;65.54;;
74496;Laerm;62979;55.720;37.606;2023-07-31T04:40:59;52.50;47.44;61.32;;
74496;Laerm;62979;55.720;37.606;2023-07-31T04:43:26;52.74;48.03;61.71;;
74496;Laerm;62979;55.720;37.606;2023-07-31T04:45:52;54.26;47.94;61.81;;
74496;Laerm;62979;55.720;37.606;2023-07-31T04:48:19;55.87;48.70;64.79;;
74496;Laerm;62979;55.720;37.606;2023-07-31T04:50:47;54.09;48.90;68.94;;
74496;Laerm;62979;55.720;37.606;2023-07-31T04:53:15;55.35;48.62;63.49;;
74496;Laerm;62979;55.720;37.606;2023-07-31T04:55:41;57.44;48.43;70.02;;
74496;Laerm;62979;55.720;37.606;2023-07-31T04:58:08;53.95;44.56;62.08;;
74496;Laerm;62979;55.720;37.606;2023-07-31T05:00:35;54.25;46.01;69.41;;
74496;Laerm;62979;55.720;37.606;2023-07-31T05:03:02;55.13;44.86;69.66;;
74496;Laerm;62979;55.720;37.606;2023-07-31T05:05:29;53.36;45.82;62.95;;
74496;Laerm;62979;55.720;37.606;2023-07-31T05:07:57;55.27;43.43;65.34;;
74496;Laerm;62979;55.720;37.606;2023-07-31T05:10:24;54.33;47.96;65.89;;
74496;Laerm;62979;55.720;37.606;2023-07-31T05:12:51;54.44;48.76;62.38;;
74496;Laerm;62979;55.720;37.606;2023-07-31T05:15:18;56.03;47.29;63.62;;
74496;Laerm;62979;55.720;37.606;2023-07-31T05:17:45;54.28;46.73;62.08;;
74496;Laerm;62979;55.720;37.606;2023-07-31T05:20:12;57.96;49.82;69.46;;
74496;Laerm;62979;55.720;37.606;2023-07-31T05:22:40;61.01;50.08;73.04;;
74496;Laerm;62979;55.720;37.606;2023-07-31T05:25:08;55.39;48.45;64.85;;
74496;Laerm;62979;55.720;37.606;2023-07-31T05:27:35;54.99;46.05;61.50;;
74496;Laerm;62979;55.720;37.606;2023-07-31T05:30:03;54.85;47.81;61.89;;
74496;Laerm;62979;55.720;37.606;2023-07-31T05:32:30;55.83;50.27;62.70;;
74496;Laerm;62979;55.720;37.606;2023-07-31T05:34:57;58.75;49.99;64.92;;
74496;Laerm;62979;55.720;37.606;2023-07-31T05:37:24;58.74;51.71;65.38;;
74496;Laerm;62979;55.720;37.606;2023-07-31T05:39:51;63.47;52.43;69.12;;
74496;Laerm;62979;55.720;37.606;2023-07-31T05:42:19;60.31;53.78;68.90;;
74496;Laerm;62979;55.720;37.606;2023-07-31T05:44:46;63.52;58.15;67.68;;
74496;Laerm;62979;55.720;37.606;2023-07-31T05:47:13;65.29;59.54;77.42;;
74496;Laerm;62979;55.720;37.606;2023-07-31T05:49:40;67.81;56.39;74.61;;
74496;Laerm;62979;55.720;37.606;2023-07-31T05:52:07;68.34;61.76;74.16;;
74496;Laerm;62979;55.720;37.606;2023-07-31T05:54:34;68.08;62.33;73.49;;
74496;Laerm;62979;55.720;37.606;2023-07-31T05:57:01;62.75;54.56;74.10;;
74496;Laerm;62979;55.720;37.606;2023-07-31T05:59:29;62.52;52.54;73.25;;
74496;Laerm;62979;55.720;37.606;2023-07-31T06:02:00;68.44;58.83;72.90;;
74496;Laerm;62979;55.720;37.606;2023-07-31T06:04:27;62.04;55.21;71.38;;
74496;Laerm;62979;55.720;37.606;2023-07-31T06:06:54;60.40;52.74;69.25;;
74496;Laerm;62979;55.720;37.606;2023-07-31T06:09:21;58.85;54.08;64.22;;
74496;Laerm;62979;55.720;37.606;2023-07-31T06:11:48;59.73;51.66;66.06;;
74496;Laerm;62979;55.720;37.606;2023-07-31T06:14:15;58.42;52.61;73.75;;
74496;Laerm;62979;55.720;37.606;2023-07-31T06:16:44;57.13;49.77;70.66;;
74496;Laerm;62979;55.720;37.606;2023-07-31T06:19:11;60.18;50.36;77.94;;
74496;Laerm;62979;55.720;37.606;2023-07-31T06:21:38;60.21;51.75;72.92;;
74496;Laerm;62979;55.720;37.606;2023-07-31T06:24:07;62.38;51.86;76.38;;
74496;Laerm;62979;55.720;37.606;2023-07-31T06:26:35;64.81;50.16;80.00;;
74496;Laerm;62979;55.720;37.606;2023-07-31T06:29:01;65.74;51.42;84.96;;
74496;Laerm;62979;55.720;37.606;2023-07-31T06:31:28;65.71;52.88;79.44;;
74496;Laerm;62979;55.720;37.606;2023-07-31T06:33:57;63.81;52.16;80.30;;
74496;Laerm;62979;55.720;37.606;2023-07-31T06:36:24;58.85;51.26;69.71;;
74496;Laerm;62979;55.720;37.606;2023-07-31T06:38:50;68.54;55.39;83.00;;
74496;Laerm;62979;55.720;37.606;2023-07-31T06:41:17;64.36;56.46;72.67;;
74496;Laerm;62979;55.720;37.606;2023-07-31T06:43:44;64.76;51.82;72.47;;
74496;Laerm;62979;55.720;37.606;2023-07-31T06:46:11;66.31;61.88;70.50;;
74496;Laerm;62979;55.720;37.606;2023-07-31T06:48:38;65.98;60.41;72.15;;
74496;Laerm;62979;55.720;37.606;2023-07-31T06:51:07;65.78;61.47;70.33;;
74496;Laerm;62979;55.720;37.606;2023-07-31T06:53:34;65.41;59.92;73.13;;
74496;Laerm;62979;55.720;37.606;2023-07-31T06:56:00;63.05;58.51;70.32;;
74496;Laerm;62979;55.720;37.606;2023-07-31T06:58:27;62.50;56.20;69.31;;
74496;Laerm;62979;55.720;37.606;2023-07-31T07:00:54;64.50;60.03;75.83;;
74496;Laerm;62979;55.720;37.606;2023-07-31T07:03:21;62.75;52.78;71.98;;
74496;Laerm;62979;55.720;37.606;2023-07-31T07:05:48;62.64;58.34;66.40;;
74496;Laerm;62979;55.720;37.606;2023-07-31T07:08:16;60.98;54.88;66.82;;
74496;Laerm;62979;55.720;37.606;2023-07-31T07:10:43;60.84;54.84;66.23;;
74496;Laerm;62979;55.720;37.606;2023-07-31T07:13:10;56.93;51.41;69.36;;
74496;Laerm;62979;55.720;37.606;2023-07-31T07:15:38;58.67;51.66;67.57;;
74496;Laerm;62979;55.720;37.606;2023-07-31T07:18:05;56.98;50.26;66.81;;
74496;Laerm;62979;55.720;37.606;2023-07-31T07:20:31;54.88;47.44;62.66;;
74496;Laerm;62979;55.720;37.606;2023-07-31T07:22:58;55.59;48.28;63.87;;
74496;Laerm;62979;55.720;37.606;2023-07-31T07:25:27;59.52;50.35;77.97;;
74496;Laerm;62979;55.720;37.606;2023-07-31T07:27:54;57.71;50.82;66.27;;
74496;Laerm;62979;55.720;37.606;2023-07-31T07:30:21;57.90;50.86;71.92;;
74496;Laerm;62979;55.720;37.606;2023-07-31T07:32:49;57.09;49.63;72.00;;
74496;Laerm;62979;55.720;37.606;2023-07-31T07:35:16;59.29;50.69;72.39;;
74496;Laerm;62979;55.720;37.606;2023-07-31T07:37:43;61.73;51.97;70.77;;
74496;Laerm;62979;55.720;37.606;2023-07-31T07:40:11;61.63;50.07;81.65;;
74496;Laerm;62979;55.720;37.606;2023-07-31T07:42:39;61.15;51.18;75.82;;
74496;Laerm;62979;55.720;37.606;2023-07-31T07:45:07;55.71;50.73;65.05;;
74496;Laerm;62979;55.720;37.606;2023-07-31T07:47:34;56.30;50.15;69.48;;
74496;Laerm;62979;55.720;37.606;2023-07-31T07:50:01;55.08;49.18;66.66;;
74496;Laerm;62979;55.720;37.606;2023-07-31T07:52:28;63.22;51.96;72.05;;
74496;Laerm;62979;55.720;37.606;2023-07-31T07:54:55;54.20;48.07;61.52;;
74496;Laerm;62979;55.720;37.606;2023-07-31T07:57:22;55.05;49.27;61.69;;
74496;Laerm;62979;55.720;37.606;2023-07-31T07:59:50;56.17;50.60;63.27;;
74496;Laerm;62979;55.720;37.606;2023-07-31T08:02:17;57.93;52.67;70.99;;
74496;Laerm;62979;55.720;37.606;2023-07-31T08:04:44;61.15;48.83;70.19;;
74496;Laerm;62979;55.720;37.606;2023-07-31T08:07:11;61.41;51.71;70.75;;
74496;Laerm;62979;55.720;37.606;2023-07-31T08:09:39;57.34;49.56;68.74;;
74496;Laerm;62979;55.720;37.606;2023-07-31T08:12:07;61.34;53.65;77.00;;
74496;Laerm;62979;55.720;37.606;2023-07-31T08:14:34;59.89;51.41;76.08;;
74496;Laerm;62979;55.720;37.606;2023-07-31T08:17:02;59.84;54.10;64.93;;
74496;Laerm;62979;55.720;37.606;2023-07-31T08:19:29;55.57;49.33;63.14;;
74496;Laerm;62979;55.720;37.606;2023-07-31T08:21:56;56.16;48.87;63.61;;
74496;Laerm;62979;55.720;37.606;2023-07-31T08:24:23;62.80;50.76;71.36;;
74496;Laerm;62979;55.720;37.606;2023-07-31T08:26:50;57.08;50.79;73.87;;
74496;Laerm;62979;55.720;37.606;2023-07-31T08:29:17;59.04;50.53;70.53;;
74496;Laerm;62979;55.720;37.606;2023-07-31T08:31:44;63.85;53.18;71.14;;
74496;Laerm;62979;55.720;37.606;2023-07-31T08:34:13;58.39;52.09;64.47;;
74496;Laerm;62979;55.720;37.606;2023-07-31T08:36:39;58.68;51.67;69.36;;
74496;Laerm;62979;55.720;37.606;2023-07-31T08:39:06;59.99;53.67;75.29;;
74496;Laerm;62979;55.720;37.606;2023-07-31T08:41:37;57.75;50.37;64.34;;
74496;Laerm;62979;55.720;37.606;2023-07-31T08:44:05;55.89;50.02;66.47;;
74496;Laerm;62979;55.720;37.606;2023-07-31T08:46:34;56.65;51.02;66.60;;
74496;Laerm;62979;55.720;37.606;2023-07-31T08:49:04;56.40;49.59;69.32;;
74496;Laerm;62979;55.720;37.606;2023-07-31T08:51:34;55.36;47.24;64.39;;
74496;Laerm;62979;55.720;37.606;2023-07-31T08:54:02;56.45;50.01;62.54;;
74496;Laerm;62979;55.720;37.606;2023-07-31T08:56:32;55.00;47.58;71.55;;
74496;Laerm;62979;55.720;37.606;2023-07-31T08:59:02;55.24;49.65;65.89;;
74496;Laerm;62979;55.720;37.606;2023-07-31T09:01:33;55.96;49.33;71.29;;
74496;Laerm;62979;55.720;37.606;2023-07-31T09:04:05;57.22;50.70;69.29;;
74496;Laerm;62979;55.720;37.606;2023-07-31T09:06:34;57.92;49.99;69.15;;
74496;Laerm;62979;55.720;37.606;2023-07-31T09:09:01;56.08;48.83;68.72;;
74496;Laerm;62979;55.720;37.606;2023-07-31T09:11:28;61.97;48.68;72.93;;
74496;Laerm;62979;55.720;37.606;2023-07-31T09:13:57;58.02;48.68;72.74;;
74496;Laerm;62979;55.720;37.606;2023-07-31T09:16:28;54.74;49.62;64.21;;
74496;Laerm;62979;55.720;37.606;2023-07-31T09:18:57;55.08;50.79;63.96;;
74496;Laerm;62979;55.720;37.606;2023-07-31T09:21:27;55.51;48.97;62.37;;
74496;Laerm;62979;55.720;37.606;2023-07-31T09:23:57;59.53;50.64;69.58;;
74496;Laerm;62979;55.720;37.606;2023-07-31T09:26:31;56.81;49.40;67.67;;
74496;Laerm;62979;55.720;37.606;2023-07-31T09:28:59;57.57;51.80;71.50;;
74496;Laerm;62979;55.720;37.606;2023-07-31T09:31:39;57.26;49.90;70.75;;
74496;Laerm;62979;55.720;37.606;2023-07-31T09:34:06;57.94;51.01;77.05;;
74496;Laerm;62979;55.720;37.606;2023-07-31T09:36:40;59.84;51.11;83.34;;
74496;Laerm;62979;55.720;37.606;2023-07-31T09:39:11;61.93;52.56;69.77;;
74496;Laerm;62979;55.720;37.606;2023-07-31T09:41:40;64.50;51.25;83.56;;
74496;Laerm;62979;55.720;37.606;2023-07-31T09:44:07;63.29;49.75;86.80;;
74496;Laerm;62979;55.720;37.606;2023-07-31T09:46:35;54.59;48.59;65.04;;
74496;Laerm;62979;55.720;37.606;2023-07-31T09:49:07;58.73;51.52;70.61;;
74496;Laerm;62979;55.720;37.606;2023-07-31T09:51:36;56.11;50.44;69.58;;
74496;Laerm;62979;55.720;37.606;2023-07-31T09:54:10;59.10;50.29;78.68;;
74496;Laerm;62979;55.720;37.606;2023-07-31T09:56:42;55.52;48.95;65.72;;
74496;Laerm;62979;55.720;37.606;2023-07-31T09:59:13;56.67;50.06;66.17;;
74496;Laerm;62979;55.720;37.606;2023-07-31T10:01:41;59.85;50.61;86.11;;
74496;Laerm;62979;55.720;37.606;2023-07-31T10:04:09;56.59;48.74;71.92;;
74496;Laerm;62979;55.720;37.606;2023-07-31T10:06:38;56.27;49.42;70.84;;
74496;Laerm;62979;55.720;37.606;2023-07-31T10:09:07;57.54;51.58;67.16;;
74496;Laerm;62979;55.720;37.606;2023-07-31T10:11:41;54.66;49.33;67.11;;
74496;Laerm;62979;55.720;37.606;2023-07-31T10:14:10;57.15;49.34;69.86;;
74496;Laerm;62979;55.720;37.606;2023-07-31T10:16:39;57.55;50.72;70.42;;
74496;Laerm;62979;55.720;37.606;2023-07-31T10:19:07;55.78;49.30;64.23;;
74496;Laerm;62979;55.720;37.606;2023-07-31T10:21:36;60.92;50.66;69.97;;
74496;Laerm;62979;55.720;37.606;2023-07-31T10:24:04;60.18;52.12;68.43;;
74496;Laerm;62979;55.720;37.606;2023-07-31T10:26:32;56.35;49.01;69.92;;
74496;Laerm;62979;55.720;37.606;2023-07-31T10:29:02;55.35;49.52;70.38;;
74496;Laerm;62979;55.720;37.606;2023-07-31T10:31:30;55.34;49.65;69.80;;
74496;Laerm;62979;55.720;37.606;2023-07-31T10:33:58;56.78;50.27;66.29;;
74496;Laerm;62979;55.720;37.606;2023-07-31T10:36:26;56.56;48.95;66.86;;
74496;Laerm;62979;55.720;37.606;2023-07-31T10:38:56;55.75;50.44;63.97;;
74496;Laerm;62979;55.720;37.606;2023-07-31T10:41:29;57.08;51.54;64.36;;
74496;Laerm;62979;55.720;37.606;2023-07-31T10:43:58;55.38;49.49;65.82;;
74496;Laerm;62979;55.720;37.606;2023-07-31T10:46:28;57.19;48.73;68.16;;
74496;Laerm;62979;55.720;37.606;2023-07-31T10:49:00;56.95;51.62;66.42;;
74496;Laerm;62979;55.720;37.606;2023-07-31T10:51:33;55.95;50.70;68.67;;
74496;Laerm;62979;55.720;37.606;2023-07-31T10:54:12;57.99;52.33;65.25;;
74496;Laerm;62979;55.720;37.606;2023-07-31T10:56:39;59.19;48.60;78.12;;
74496;Laerm;62979;55.720;37.606;2023-07-31T10:59:06;58.27;53.05;73.75;;
74496;Laerm;62979;55.720;37.606;2023-07-31T11:01:55;57.72;52.97;69.21;;
74496;Laerm;62979;55.720;37.606;2023-07-31T11:04:25;60.16;50.72;73.79;;
74496;Laerm;62979;55.720;37.606;2023-07-31T11:06:56;58.11;51.45;67.77;;
74496;Laerm;62979;55.720;37.606;2023-07-31T11:09:28;57.04;51.50;67.08;;
74496;Laerm;62979;55.720;37.606;2023-07-31T11:11:56;57.72;51.90;67.36;;
74496;Laerm;62979;55.720;37.606;2023-07-31T11:14:23;57.36;50.65;64.50;;
74496;Laerm;62979;55.720;37.606;2023-07-31T11:16:50;57.55;51.42;73.44;;
74496;Laerm;62979;55.720;37.606;2023-07-31T11:19:23;56.55;51.17;65.44;;
74496;Laerm;62979;55.720;37.606;2023-07-31T11:21:52;56.36;51.44;63.92;;
74496;Laerm;62979;55.720;37.606;2023-07-31T11:24:20;55.68;51.30;62.73;;
74496;Laerm;62979;55.720;37.606;2023-07-31T11:26:51;55.86;50.02;68.52;;
74496;Laerm;62979;55.720;37.606;2023-07-31T11:29:19;57.68;51.36;71.66;;
74496;Laerm;62979;55.720;37.606;2023-07-31T11:31:47;59.42;52.83;72.91;;
74496;Laerm;62979;55.720;37.606;2023-07-31T11:34:14;55.38;51.00;65.33;;
74496;Laerm;62979;55.720;37.606;2023-07-31T11:36:53;58.38;52.00;68.68;;
74496;Laerm;62979;55.720;37.606;2023-07-31T11:39:21;58.90;51.09;69.41;;
74496;Laerm;62979;55.720;37.606;2023-07-31T11:41:48;59.01;52.59;74.90;;
74496;Laerm;62979;55.720;37.606;2023-07-31T11:44:15;57.08;50.38;70.05;;
74496;Laerm;62979;55.720;37.606;2023-07-31T11:46:42;57.25;50.35;69.46;;
74496;Laerm;62979;55.720;37.606;2023-07-31T11:49:09;57.35;51.60;70.34;;
74496;Laerm;62979;55.720;37.606;2023-07-31T11:51:36;63.18;53.71;83.06;;
74496;Laerm;62979;55.720;37.606;2023-07-31T11:54:05;60.55;53.62;74.38;;
74496;Laerm;62979;55.720;37.606;2023-07-31T11:56:33;59.26;51.68;76.11;;
74496;Laerm;62979;55.720;37.606;2023-07-31T11:59:01;58.99;51.79;67.43;;
74496;Laerm;62979;55.720;37.606;2023-07-31T12:01:31;57.39;51.36;66.69;;
74496;Laerm;62979;55.720;37.606;2023-07-31T12:03:58;55.79;51.31;66.93;;
74496;Laerm;62979;55.720;37.606;2023-07-31T12:06:33;57.45;50.82;68.40;;
74496;Laerm;62979;55.720;37.606;2023-07-31T12:09:04;58.57;54.02;76.40;;
74496;Laerm;62979;55.720;37.606;2023-07-31T12:11:31;60.40;55.15;67.13;;
74496;Laerm;62979;55.720;37.606;2023-07-31T12:14:20;60.75;52.02;67.12;;
74496;Laerm;62979;55.720;37.606;2023-07-31T12:16:47;61.96;58.24;66.98;;
74496;Laerm;62979;55.720;37.606;2023-07-31T12:19:14;60.83;55.95;77.45;;
74496;Laerm;62979;55.720;37.606;2023-07-31T12:21:41;61.97;56.40;75.42;;
74496;Laerm;62979;55.720;37.606;2023-07-31T12:24:09;61.03;55.19;67.27;;
74496;Laerm;62979;55.720;37.606;2023-07-31T12:26:36;65.81;54.35;84.77;;
74496;Laerm;62979;55.720;37.606;2023-07-31T12:29:07;60.78;52.56;67.17;;
74496;Laerm;62979;55.720;37.606;2023-07-31T12:31:34;63.61;56.89;76.38;;
74496;Laerm;62979;55.720;37.606;2023-07-31T12:34:02;62.17;55.98;79.37;;
74496;Laerm;62979;55.720;37.606;2023-07-31T12:36:30;62.00;57.78;71.32;;
74496;Laerm;62979;55.720;37.606;2023-07-31T12:39:01;62.76;57.86;72.13;;
74496;Laerm;62979;55.720;37.606;2023-07-31T12:41:30;63.07;56.03;76.34;;
74496;Laerm;62979;55.720;37.606;2023-07-31T12:43:56;59.54;53.99;72.03;;
74496;Laerm;62979;55.720;37.606;2023-07-31T12:46:23;58.19;54.22;65.95;;
74496;Laerm;62979;55.720;37.606;2023-07-31T12:48:50;55.85;51.11;73.36;;
74496;Laerm;62979;55.720;37.606;2023-07-31T12:51:17;57.40;53.03;65.51;;
74496;Laerm;62979;55.720;37.606;2023-07-31T12:53:44;59.58;51.37;70.64;;
74496;Laerm;62979;55.720;37.606;2023-07-31T12:56:11;63.16;58.23;69.62;;
74496;Laerm;62979;55.720;37.606;2023-07-31T12:58:39;63.76;59.52;78.72;;
74496;Laerm;62979;55.720;37.606;2023-07-31T13:01:06;63.27;57.47;67.85;;
74496;Laerm;62979;55.720;37.606;2023-07-31T13:03:33;63.66;58.32;68.68;;
74496;Laerm;62979;55.720;37.606;2023-07-31T13:06:00;62.85;57.01;70.01;;
74496;Laerm;62979;55.720;37.606;2023-07-31T13:08:27;63.26;57.95;77.41;;
74496;Laerm;62979;55.720;37.606;2023-07-31T13:10:55;64.16;60.24;68.25;;
74496;Laerm;62979;55.720;37.606;2023-07-31T13:13:21;62.89;53.65;67.74;;
74496;Laerm;62979;55.720;37.606;2023-07-31T13:15:50;61.55;50.48;77.81;;
74496;Laerm;62979;55.720;37.606;2023-07-31T13:18:17;59.46;51.79;74.57;;
74496;Laerm;62979;55.720;37.606;2023-07-31T13:20:43;65.63;51.60;75.65;;
74496;Laerm;62979;55.720;37.606;2023-07-31T13:23:10;68.48;56.18;78.03;;
74496;Laerm;62979;55.720;37.606;2023-07-31T13:25:37;66.04;50.70;80.08;;
74496;Laerm;62979;55.720;37.606;2023-07-31T13:28:04;66.81;51.79;81.01;;
74496;Laerm;62979;55.720;37.606;2023-07-31T13:30:31;67.92;52.32;80.68;;
74496;Laerm;62979;55.720;37.606;2023-07-31T13:32:59;58.41;53.90;72.74;;
74496;Laerm;62979;55.720;37.606;2023-07-31T13:35:26;59.01;54.25;71.17;;
74496;Laerm;62979;55.720;37.606;2023-07-31T13:37:53;57.03;51.34;67.83;;